Overview Statistics Trail Chart Weather Telemetry Raw packets
 

This is the latest recevied weather packets stored in our database for station/object OM5AST-13. If no packets are shown the sender has not sent any weather packets the latest 10 day(s).

<< 16 17 18 19 20 21 22 >>
Time Temp. Humidity Pressure Rain* Wind** Luminosity Snow
1788105835 38.89° C 22% - 0 mm - 0 W/m² -
1788104635 38.33° C 22% - 0 mm - 0 W/m² -
1788103435 38.33° C 22% - 0 mm - 0 W/m² -
1788102235 37.78° C 23% - 0 mm - 0 W/m² -
1788101035 37.78° C 23% - 0 mm - 0 W/m² -
1788099835 36.67° C 24% - 0 mm - 0 W/m² -
1788098635 36.67° C 25% - 0 mm - 0 W/m² -
1788097435 33.33° C 28% - 0 mm - 0 W/m² -
1788096235 35° C 27% - 0 mm - 0 W/m² -
1788095035 34.44° C 28% - 0 mm - 0 W/m² -
1788093835 32.78° C 30% - 0 mm - 0 W/m² -
1788092635 30° C 35% - 0 mm - 0 W/m² -
1788091435 28.89° C 37% - 0 mm - 0 W/m² -
1788090235 28.33° C 38% - 0 mm - 0 W/m² -
1788089035 28.33° C 41% - 0 mm - 0 W/m² -
1788087835 27.78° C 42% - 0 mm - 0 W/m² -
1788086635 27.22° C 44% - 0 mm - 0 W/m² -
1788085436 26.67° C 45% - 0 mm - 0 W/m² -
1788084235 26.67° C 45% - 0 mm - 0 W/m² -
1788083035 26.67° C 46% - 0 mm - 0 W/m² -
1788081835 26.11° C 48% - 0 mm - 0 W/m² -
1788080635 25.56° C 50% - 0 mm - 0 W/m² -
1788079435 25° C 52% - 0 mm - 0 W/m² -
1788078235 24.44° C 53% - 0 mm - 0 W/m² -
1788077035 23.89° C 54% - 0 mm - 0 W/m² -

* Rain latest hour (hover to see other rain measurements)
** Current wind speed in m/s (hover to see current wind gust speed)